This is the latest recevied weather packets stored in our database for station/object F4LNO-10. If no packets are shown the sender has not sent any weather packets the latest 10 day(s).
| Time | Temp. | Humidity | Pressure | Rain* | Wind** | Luminosity | Snow |
|---|---|---|---|---|---|---|---|
| 1777803668 | 21.67° C | 57% | 1020.2 hPa | - | - | - | - |
| 1777802767 | 21.67° C | 57% | 1020.3 hPa | - | - | - | - |
| 1777801866 | 20° C | 63% | 1020.4 hPa | - | - | - | - |
| 1777800965 | 21.67° C | 53% | 1020.4 hPa | - | - | - | - |
| 1777800064 | 22.22° C | 52% | 1020.3 hPa | - | - | - | - |
| 1777799164 | 22.22° C | 52% | 1020.3 hPa | - | - | - | - |
| 1777798263 | 22.22° C | 51% | 1020.4 hPa | - | - | - | - |
| 1777797362 | 22.22° C | 51% | 1020.3 hPa | - | - | - | - |
| 1777796461 | 22.22° C | 50% | 1020.2 hPa | - | - | - | - |
| 1777795561 | 22.22° C | 50% | 1020.1 hPa | - | - | - | - |
| 1777794659 | 22.22° C | 50% | 1020.2 hPa | - | - | - | - |
| 1777793777 | 22.78° C | 50% | 1020.2 hPa | - | - | - | - |
| 1777792876 | 20° C | 55% | 1020 hPa | - | - | - | - |
| 1777791975 | 20° C | 54% | 1019.9 hPa | - | - | - | - |
| 1777791074 | 19.44° C | 54% | 1019.9 hPa | - | - | - | - |
| 1777790173 | 19.44° C | 52% | 1019.9 hPa | - | - | - | - |
| 1777789273 | 20° C | 50% | 1019.8 hPa | - | - | - | - |
| 1777788372 | 21.67° C | 47% | 1019.6 hPa | - | - | - | - |
| 1777787471 | 21.67° C | 48% | 1019.7 hPa | - | - | - | - |
| 1777786570 | 21.67° C | 47% | 1019.6 hPa | - | - | - | - |
| 1777785669 | 21.67° C | 47% | 1019.5 hPa | - | - | - | - |
| 1777784768 | 21.67° C | 47% | 1019.5 hPa | - | - | - | - |
| 1777783867 | 21.67° C | 48% | 1019.4 hPa | - | - | - | - |
| 1777782967 | 22.22° C | 48% | 1019.6 hPa | - | - | - | - |
| 1777782066 | 21.67° C | 48% | 1019.6 hPa | - | - | - | - |
* Rain since midnight (hover to see other rain measurements)
** Current wind speed in m/s (hover to see current wind gust speed)